Time;durP1;ratioP1;P1;durP2;ratioP2;P2;SDS_P1;SDS_P2;PMS_P1;PMS_P2;Temp;Humidity;BMP_temperature;BMP_pressure;BME280_temperature;BME280_humidity;BME280_pressure;Samples;Min_cycle;Max_cycle;Signal;HPM_P1;HPM_P2
2021/12/09 00:02:23;;;;;;;91.13;43.97;;;2.20;99.90;;;;;;5075639;28;20038;-79
2021/12/09 00:04:48;;;;;;;81.53;40.60;;;2.20;99.90;;;;;;5091164;28;20495;-79
2021/12/09 00:07:15;;;;;;;80.18;41.00;;;2.10;99.90;;;;;;5080588;28;20029;-79
2021/12/09 00:09:40;;;;;;;97.13;44.60;;;2.10;99.90;;;;;;5072691;28;20377;-78
2021/12/09 00:12:07;;;;;;;97.80;48.67;;;2.10;99.90;;;;;;5072023;28;20103;-79
2021/12/09 00:14:34;;;;;;;87.47;46.35;;;2.10;99.90;;;;;;5085290;28;20020;-79
2021/12/09 00:17:08;;;;;;;86.15;44.53;;;2.00;99.90;;;;;;5077139;28;20029;-79
2021/12/09 00:19:36;;;;;;;82.32;42.80;;;2.10;99.90;;;;;;5072602;28;20075;-79
2021/12/09 00:22:07;;;;;;;83.65;40.22;;;2.00;99.90;;;;;;5074497;28;20078;-79
2021/12/09 00:24:33;;;;;;;82.22;41.45;;;2.00;99.90;;;;;;5073677;28;20577;-78
2021/12/09 00:27:01;;;;;;;86.78;43.95;;;2.00;99.90;;;;;;5072504;28;20079;-79
2021/12/09 00:29:26;;;;;;;81.40;41.10;;;2.00;99.90;;;;;;5078125;28;20050;-79
2021/12/09 00:31:52;;;;;;;91.88;45.50;;;1.90;99.90;;;;;;5086183;28;20115;-78
2021/12/09 00:34:20;;;;;;;79.70;41.95;;;1.90;99.90;;;;;;5069726;28;20107;-79
2021/12/09 00:36:57;;;;;;;73.03;38.22;;;1.90;99.90;;;;;;5072049;28;20021;-79
2021/12/09 00:39:23;;;;;;;78.28;37.63;;;1.90;99.90;;;;;;5087894;28;20020;-78
2021/12/09 00:41:50;;;;;;;70.32;36.17;;;1.90;99.90;;;;;;5070458;28;20024;-79
2021/12/09 00:44:15;;;;;;;71.15;35.80;;;2.00;99.90;;;;;;5072317;28;20056;-79
2021/12/09 00:46:42;;;;;;;74.90;38.65;;;2.00;99.90;;;;;;5071947;28;20627;-79
2021/12/09 00:49:08;;;;;;;67.90;34.45;;;2.00;99.90;;;;;;5071847;28;20032;-79
2021/12/09 00:51:35;;;;;;;70.47;37.80;;;2.00;99.90;;;;;;5071917;28;20025;-78
2021/12/09 00:54:01;;;;;;;74.60;39.22;;;2.00;99.90;;;;;;5070605;28;20427;-78
2021/12/09 00:56:26;;;;;;;88.18;44.95;;;2.00;99.90;;;;;;5070367;28;20054;-78
2021/12/09 00:58:55;;;;;;;91.70;43.40;;;2.00;99.90;;;;;;5070676;28;20017;-78
2021/12/09 01:01:21;;;;;;;94.75;44.72;;;2.00;99.90;;;;;;5071877;28;20044;-78
2021/12/09 01:03:47;;;;;;;87.72;43.80;;;2.00;99.90;;;;;;5071942;28;20021;-78
2021/12/09 01:06:13;;;;;;;89.63;45.65;;;1.90;99.90;;;;;;5071561;28;20484;-78
2021/12/09 01:08:41;;;;;;;90.65;46.35;;;1.80;99.90;;;;;;5071492;28;20029;-78
2021/12/09 01:11:07;;;;;;;100.25;48.40;;;1.70;99.90;;;;;;5071424;28;20476;-78
2021/12/09 01:13:33;;;;;;;105.88;49.78;;;1.70;99.90;;;;;;5070637;28;20085;-78
2021/12/09 01:15:59;;;;;;;101.38;48.25;;;1.70;99.90;;;;;;5071901;28;20085;-78
2021/12/09 01:18:25;;;;;;;103.47;47.28;;;1.60;99.90;;;;;;5070643;28;20024;-79
2021/12/09 01:20:51;;;;;;;110.97;53.35;;;1.50;99.90;;;;;;5073225;28;20036;-79
2021/12/09 01:23:17;;;;;;;111.80;51.90;;;1.50;99.90;;;;;;5074670;28;20469;-79
2021/12/09 01:25:43;;;;;;;110.95;51.83;;;1.40;99.90;;;;;;5075053;28;20036;-78
2021/12/09 01:28:18;;;;;;;109.75;52.75;;;1.40;99.90;;;;;;5075131;28;20024;-79
2021/12/09 01:30:47;;;;;;;106.28;49.08;;;1.40;99.90;;;;;;5074942;28;20040;-78
2021/12/09 01:33:13;;;;;;;104.30;49.65;;;1.30;99.90;;;;;;5074980;28;20020;-78
2021/12/09 01:35:40;;;;;;;96.93;47.78;;;1.30;99.90;;;;;;5073452;28;20046;-78
2021/12/09 01:38:13;;;;;;;108.78;51.65;;;1.30;99.90;;;;;;5074616;28;20111;-79
2021/12/09 01:40:39;;;;;;;117.35;55.00;;;1.30;99.90;;;;;;5075273;28;20100;-79
2021/12/09 01:43:05;;;;;;;103.45;48.33;;;1.30;99.90;;;;;;5074983;28;20078;-78
2021/12/09 01:45:31;;;;;;;109.85;50.90;;;1.20;99.90;;;;;;5074890;28;20020;-78
2021/12/09 01:47:57;;;;;;;104.38;49.60;;;1.20;99.90;;;;;;5074904;28;20082;-78
2021/12/09 01:50:25;;;;;;;95.35;44.92;;;1.20;99.90;;;;;;5074987;28;20036;-78
2021/12/09 01:52:50;;;;;;;90.57;43.17;;;1.20;99.90;;;;;;5074241;28;20082;-78
2021/12/09 01:55:19;;;;;;;88.25;41.67;;;1.30;99.90;;;;;;5074305;28;20484;-79
2021/12/09 01:57:50;;;;;;;86.18;43.45;;;1.30;99.90;;;;;;5074403;28;20028;-78
2021/12/09 02:00:29;;;;;;;79.68;38.10;;;1.40;99.90;;;;;;5074338;28;20536;-78
2021/12/09 02:02:56;;;;;;;86.85;42.70;;;1.40;99.90;;;;;;5078632;28;20020;-79
2021/12/09 02:05:23;;;;;;;83.18;39.97;;;1.40;99.90;;;;;;5088401;28;20055;-79
2021/12/09 02:07:49;;;;;;;98.53;48.30;;;1.40;99.90;;;;;;5074867;28;20341;-79
2021/12/09 02:10:17;;;;;;;95.38;47.70;;;1.50;99.90;;;;;;5086007;28;20506;-79
2021/12/09 02:12:45;;;;;;;104.07;48.00;;;1.50;99.90;;;;;;5082013;28;20054;-78
2021/12/09 02:15:11;;;;;;;100.85;47.35;;;1.50;99.90;;;;;;5082647;28;20052;-78
2021/12/09 02:17:36;;;;;;;102.05;46.88;;;1.40;99.90;;;;;;5074297;28;20460;-78
2021/12/09 02:20:07;;;;;;;104.18;48.28;;;1.40;99.90;;;;;;5088788;28;20042;-78
2021/12/09 02:22:32;;;;;;;111.60;49.90;;;1.40;99.90;;;;;;5080427;28;20481;-79
2021/12/09 02:24:58;;;;;;;107.05;49.75;;;1.30;99.90;;;;;;5084062;28;20150;-78
2021/12/09 02:27:25;;;;;;;116.57;50.58;;;1.40;99.90;;;;;;5083960;28;20036;-78
2021/12/09 02:29:55;;;;;;;117.25;50.55;;;1.30;99.90;;;;;;5079692;28;20017;-78
2021/12/09 02:32:21;;;;;;;112.47;50.97;;;1.30;99.90;;;;;;5077355;28;20369;-78
2021/12/09 02:34:46;;;;;;;104.68;50.65;;;1.20;99.90;;;;;;5074698;28;20028;-79
2021/12/09 02:37:14;;;;;;;111.00;50.13;;;1.20;99.90;;;;;;5073640;28;20039;-78
2021/12/09 02:39:43;;;;;;;123.43;53.67;;;1.20;99.90;;;;;;5077400;28;20030;-78
2021/12/09 02:42:10;;;;;;;115.38;52.55;;;1.20;99.90;;;;;;5068449;28;20377;-78
2021/12/09 02:44:36;;;;;;;117.13;53.20;;;1.20;99.90;;;;;;5077702;28;20357;-79
2021/12/09 02:47:03;;;;;;;114.20;50.45;;;1.20;99.90;;;;;;5075764;28;20032;-79
2021/12/09 02:49:30;;;;;;;125.45;53.45;;;1.10;99.90;;;;;;5094063;28;20035;-79
2021/12/09 02:52:00;;;;;;;111.03;50.88;;;1.10;99.90;;;;;;5089719;28;20050;-78
2021/12/09 02:54:27;;;;;;;118.18;51.55;;;1.10;99.90;;;;;;5087362;28;20028;-78
2021/12/09 02:56:57;;;;;;;110.90;49.38;;;1.10;99.90;;;;;;5080582;28;20041;-79
2021/12/09 02:59:24;;;;;;;123.78;52.05;;;1.00;99.90;;;;;;5075983;28;20395;-78
2021/12/09 03:01:58;;;;;;;124.85;53.45;;;1.00;99.90;;;;;;5056771;28;20023;-78
2021/12/09 03:04:38;;;;;;;127.95;52.70;;;1.00;99.90;;;;;;5073229;28;20016;-78
2021/12/09 03:07:14;;;;;;;121.07;51.40;;;1.00;99.90;;;;;;5080894;28;20524;-78
2021/12/09 03:09:52;;;;;;;114.88;49.92;;;1.00;99.90;;;;;;5059827;28;20490;-78
2021/12/09 03:12:28;;;;;;;110.95;47.35;;;1.10;99.90;;;;;;5073086;28;20536;-78
2021/12/09 03:14:53;;;;;;;126.10;53.63;;;1.00;99.90;;;;;;5075042;28;20056;-79
2021/12/09 03:17:20;;;;;;;114.47;49.63;;;1.00;99.90;;;;;;5085612;28;20413;-78
2021/12/09 03:19:48;;;;;;;118.90;51.92;;;1.00;99.90;;;;;;5082156;28;20030;-79
2021/12/09 03:22:14;;;;;;;122.90;51.95;;;1.00;99.90;;;;;;5078035;28;20021;-78
2021/12/09 03:24:40;;;;;;;104.13;46.42;;;1.00;99.90;;;;;;5073198;28;20025;-79
2021/12/09 03:27:06;;;;;;;114.55;48.60;;;1.10;99.90;;;;;;5076285;28;20031;-78
2021/12/09 03:29:32;;;;;;;122.45;52.35;;;1.00;99.90;;;;;;5075142;28;20376;-79
2021/12/09 03:32:07;;;;;;;122.75;51.60;;;1.10;99.90;;;;;;5076017;28;20032;-79
2021/12/09 03:34:35;;;;;;;102.05;47.05;;;1.10;99.90;;;;;;5091280;28;20027;-78
2021/12/09 03:37:04;;;;;;;103.97;45.92;;;1.00;99.90;;;;;;5079280;28;20082;-79
2021/12/09 03:39:36;;;;;;;100.07;46.72;;;1.10;99.90;;;;;;5077158;28;20035;-78
2021/12/09 03:42:03;;;;;;;113.25;46.45;;;1.10;99.90;;;;;;5086391;28;20100;-78
2021/12/09 03:44:29;;;;;;;104.45;46.83;;;1.10;99.90;;;;;;5072506;28;20078;-79
2021/12/09 03:46:59;;;;;;;93.25;42.22;;;1.20;99.90;;;;;;5082624;28;20495;-79
2021/12/09 03:49:25;;;;;;;100.57;43.25;;;1.20;99.90;;;;;;5072446;28;20036;-78
2021/12/09 03:51:52;;;;;;;101.80;43.65;;;1.20;99.90;;;;;;5072192;28;20031;-79
2021/12/09 03:54:18;;;;;;;95.78;42.60;;;1.20;99.90;;;;;;5073833;28;20021;-79
2021/12/09 03:56:43;;;;;;;93.25;42.95;;;1.30;99.90;;;;;;5074438;28;20396;-79
2021/12/09 03:59:10;;;;;;;100.55;43.45;;;1.30;99.90;;;;;;5077500;28;20103;-79
2021/12/09 04:01:38;;;;;;;95.82;43.75;;;1.30;99.90;;;;;;5073690;28;20032;-78
2021/12/09 04:04:05;;;;;;;97.63;41.92;;;1.30;99.90;;;;;;5072080;28;20025;-79
2021/12/09 04:06:32;;;;;;;86.78;38.50;;;1.30;99.90;;;;;;5077038;28;20415;-79
2021/12/09 04:09:00;;;;;;;91.70;40.80;;;1.30;99.90;;;;;;5072370;28;20024;-78
2021/12/09 04:11:26;;;;;;;80.07;37.03;;;1.30;99.90;;;;;;5073781;28;20047;-79
2021/12/09 04:13:54;;;;;;;90.18;39.22;;;1.40;99.90;;;;;;5083604;28;20031;-79
2021/12/09 04:16:20;;;;;;;80.97;38.92;;;1.30;99.90;;;;;;5078677;28;20399;-79
2021/12/09 04:18:47;;;;;;;86.47;39.30;;;1.40;99.90;;;;;;5073177;28;20036;-78
2021/12/09 04:21:13;;;;;;;86.28;37.65;;;1.40;99.90;;;;;;5085328;28;20096;-78
2021/12/09 04:23:39;;;;;;;87.72;39.72;;;1.40;99.90;;;;;;5075657;28;20538;-79
2021/12/09 04:26:05;;;;;;;129.60;54.72;;;1.40;99.90;;;;;;5073145;28;20025;-79
2021/12/09 04:28:33;;;;;;;116.60;49.40;;;1.40;99.90;;;;;;5052418;28;20033;-78
2021/12/09 04:31:01;;;;;;;103.13;45.05;;;1.40;99.90;;;;;;5072622;28;20028;-78
2021/12/09 04:33:29;;;;;;;123.70;53.72;;;1.30;99.90;;;;;;5089318;28;20024;-78
2021/12/09 04:35:56;;;;;;;100.80;44.42;;;1.30;99.90;;;;;;5074213;28;20036;-78
2021/12/09 04:38:21;;;;;;;108.10;44.60;;;1.30;99.90;;;;;;5072143;28;20052;-78
2021/12/09 04:40:47;;;;;;;109.15;46.47;;;1.30;99.90;;;;;;5072783;28;20048;-79
2021/12/09 04:43:14;;;;;;;112.43;47.38;;;1.30;99.90;;;;;;5072476;28;20082;-78
2021/12/09 04:45:40;;;;;;;106.97;45.53;;;1.30;99.90;;;;;;5072095;28;20414;-78
2021/12/09 04:48:08;;;;;;;107.53;46.72;;;1.40;99.90;;;;;;5072139;28;20108;-78
2021/12/09 04:50:36;;;;;;;104.68;45.05;;;1.40;99.90;;;;;;5071975;28;20024;-78
2021/12/09 04:53:02;;;;;;;119.47;50.13;;;1.40;99.90;;;;;;5057432;28;20029;-78
2021/12/09 04:55:28;;;;;;;116.78;50.53;;;1.40;99.90;;;;;;5071194;28;20107;-78
2021/12/09 04:57:53;;;;;;;125.72;51.58;;;1.40;99.90;;;;;;5075744;28;20462;-78
2021/12/09 05:00:23;;;;;;;116.93;51.13;;;1.40;99.90;;;;;;5075827;28;20082;-78
2021/12/09 05:03:03;;;;;;;107.57;48.58;;;1.40;99.90;;;;;;5075306;28;20021;-78
2021/12/09 05:05:33;;;;;;;107.65;46.42;;;1.40;99.90;;;;;;5054408;28;20151;-78
2021/12/09 05:08:00;;;;;;;126.93;49.55;;;1.40;99.90;;;;;;5060302;28;20020;-78
2021/12/09 05:10:26;;;;;;;104.35;47.33;;;1.40;99.90;;;;;;5075373;28;20020;-78
2021/12/09 05:12:52;;;;;;;111.28;47.65;;;1.40;99.90;;;;;;5075652;28;20595;-78
2021/12/09 05:15:17;;;;;;;110.43;46.25;;;1.40;99.90;;;;;;5075326;28;20397;-78
2021/12/09 05:17:43;;;;;;;109.28;47.50;;;1.40;99.90;;;;;;5075305;28;20456;-78
2021/12/09 05:20:09;;;;;;;110.68;45.30;;;1.50;99.90;;;;;;5075106;28;20028;-78
2021/12/09 05:22:35;;;;;;;117.85;48.30;;;1.40;99.90;;;;;;5073676;28;20024;-78
2021/12/09 05:25:00;;;;;;;128.65;54.00;;;1.50;99.90;;;;;;5083450;28;20019;-78
2021/12/09 05:27:26;;;;;;;107.18;45.75;;;1.40;99.90;;;;;;5095590;28;20035;-78
2021/12/09 05:30:03;;;;;;;132.05;52.03;;;1.40;99.90;;;;;;5080864;28;20029;-78
2021/12/09 05:32:30;;;;;;;118.78;48.88;;;1.40;99.90;;;;;;5074971;28;20039;-78
2021/12/09 05:34:56;;;;;;;121.07;49.53;;;1.40;99.90;;;;;;5075158;28;20029;-78
2021/12/09 05:37:25;;;;;;;121.97;51.50;;;1.30;99.90;;;;;;5074822;28;20036;-78
2021/12/09 05:39:54;;;;;;;114.82;47.67;;;1.30;99.90;;;;;;5075134;28;20036;-79
2021/12/09 05:42:21;;;;;;;125.13;50.75;;;1.30;99.90;;;;;;5087789;28;20410;-79
2021/12/09 05:44:48;;;;;;;135.20;57.10;;;1.30;99.90;;;;;;5095480;28;20476;-79
2021/12/09 05:47:14;;;;;;;133.18;55.53;;;1.30;99.90;;;;;;5093047;28;20031;-79
2021/12/09 05:49:43;;;;;;;118.68;49.58;;;1.40;99.90;;;;;;5080860;28;20017;-78
2021/12/09 05:52:15;;;;;;;109.95;45.72;;;1.30;99.90;;;;;;5094725;28;20110;-79
2021/12/09 05:54:41;;;;;;;111.97;49.05;;;1.40;99.90;;;;;;5078778;28;20067;-78
2021/12/09 05:57:08;;;;;;;100.93;41.90;;;1.40;99.90;;;;;;5074039;28;20123;-78
2021/12/09 05:59:40;;;;;;;103.60;41.53;;;1.40;99.90;;;;;;5081329;28;20012;-79
2021/12/09 06:02:08;;;;;;;93.85;41.45;;;1.40;99.90;;;;;;5074545;28;20020;-79
2021/12/09 06:04:34;;;;;;;127.25;49.20;;;1.40;99.90;;;;;;5074659;28;20125;-78
2021/12/09 06:06:59;;;;;;;108.03;45.72;;;1.40;99.90;;;;;;5073970;28;20555;-79
2021/12/09 06:09:25;;;;;;;112.55;45.28;;;1.50;99.90;;;;;;5074316;28;20017;-79
2021/12/09 06:11:50;;;;;;;117.07;48.92;;;1.50;99.90;;;;;;5070967;28;20468;-78
2021/12/09 06:14:16;;;;;;;117.00;48.35;;;1.50;99.90;;;;;;5073810;28;20033;-78
2021/12/09 06:16:42;;;;;;;133.30;52.10;;;1.40;99.90;;;;;;5073814;28;20357;-78
2021/12/09 06:19:13;;;;;;;133.70;51.53;;;1.40;99.90;;;;;;5075248;28;20024;-79
2021/12/09 06:21:39;;;;;;;135.25;53.17;;;1.40;99.90;;;;;;5079714;28;20403;-79
2021/12/09 06:24:05;;;;;;;126.85;53.20;;;1.40;99.90;;;;;;5078024;28;20013;-79
2021/12/09 06:26:32;;;;;;;129.88;52.70;;;1.40;99.90;;;;;;5074245;28;20484;-79
2021/12/09 06:29:02;;;;;;;139.82;54.63;;;1.40;99.90;;;;;;5089691;28;20406;-79
2021/12/09 06:31:28;;;;;;;119.20;46.10;;;1.30;99.90;;;;;;5085072;28;20043;-79
2021/12/09 06:33:55;;;;;;;120.57;47.60;;;1.30;99.90;;;;;;5078534;28;20480;-79
2021/12/09 06:36:20;;;;;;;126.32;50.92;;;1.30;99.90;;;;;;5078606;28;20028;-79
2021/12/09 06:38:48;;;;;;;120.32;48.65;;;1.30;99.90;;;;;;5082812;28;20036;-79
2021/12/09 06:41:14;;;;;;;114.35;47.00;;;1.30;99.90;;;;;;5077909;28;20013;-79
2021/12/09 06:43:45;;;;;;;104.88;45.10;;;1.30;99.90;;;;;;5078236;28;20035;-78
2021/12/09 06:46:12;;;;;;;134.02;53.90;;;1.30;99.90;;;;;;5078934;28;20017;-79
2021/12/09 06:48:39;;;;;;;130.15;52.50;;;1.40;99.90;;;;;;5089575;28;20032;-79
2021/12/09 06:51:06;;;;;;;131.80;50.67;;;1.40;99.90;;;;;;5074285;28;20097;-79
2021/12/09 06:53:33;;;;;;;125.70;50.83;;;1.40;99.90;;;;;;5073508;28;20424;-79
2021/12/09 06:55:59;;;;;;;134.95;51.40;;;1.40;99.90;;;;;;5082871;28;20055;-79
2021/12/09 06:58:25;;;;;;;122.40;46.75;;;1.40;99.90;;;;;;5092289;28;20028;-79
2021/12/09 07:00:54;;;;;;;122.97;49.90;;;1.40;99.90;;;;;;5090323;28;20380;-79
2021/12/09 07:03:21;;;;;;;146.23;55.22;;;1.40;99.90;;;;;;5077586;28;20097;-79
2021/12/09 07:05:48;;;;;;;129.23;49.90;;;1.40;99.90;;;;;;5068741;28;20491;-79
2021/12/09 07:08:15;;;;;;;123.20;49.30;;;1.40;99.90;;;;;;5078561;28;20020;-78
2021/12/09 07:10:40;;;;;;;118.15;48.05;;;1.40;99.90;;;;;;5070825;28;20151;-79
2021/12/09 07:13:06;;;;;;;129.57;49.90;;;1.40;99.90;;;;;;5068284;28;20166;-79
2021/12/09 07:15:32;;;;;;;149.82;54.03;;;1.40;99.90;;;;;;5073142;28;20034;-78
2021/12/09 07:17:59;;;;;;;157.10;59.85;;;1.40;99.90;;;;;;5071949;28;20373;-79
2021/12/09 07:20:27;;;;;;;157.50;61.33;;;1.40;99.90;;;;;;5072828;28;20021;-79
2021/12/09 07:22:53;;;;;;;146.75;55.88;;;1.40;99.90;;;;;;5072577;28;20017;-78
2021/12/09 07:25:20;;;;;;;152.25;56.72;;;1.30;99.90;;;;;;5071750;28;20039;-79
2021/12/09 07:27:46;;;;;;;141.32;57.47;;;1.30;99.90;;;;;;5073102;28;20027;-79
2021/12/09 07:30:12;;;;;;;131.52;51.45;;;1.30;99.90;;;;;;5088629;28;20476;-79
2021/12/09 07:32:38;;;;;;;138.13;53.65;;;1.30;99.90;;;;;;5093050;28;20071;-79
2021/12/09 07:35:07;;;;;;;126.93;51.70;;;1.20;99.90;;;;;;5079160;28;20060;-78
2021/12/09 07:37:33;;;;;;;132.10;53.30;;;1.30;99.90;;;;;;5053120;28;20473;-79
2021/12/09 07:39:59;;;;;;;126.43;51.28;;;1.30;99.90;;;;;;5055149;28;20096;-79
2021/12/09 07:42:25;;;;;;;134.40;53.97;;;1.20;99.90;;;;;;5072607;28;20491;-79
2021/12/09 07:44:52;;;;;;;125.93;49.60;;;1.20;99.90;;;;;;5058590;28;20114;-79
2021/12/09 07:47:17;;;;;;;127.32;50.38;;;1.20;99.90;;;;;;5080916;28;20471;-78
2021/12/09 07:49:44;;;;;;;124.90;47.90;;;1.20;99.90;;;;;;5082274;28;20063;-79
2021/12/09 07:52:10;;;;;;;122.50;48.83;;;1.30;99.90;;;;;;5080202;28;20048;-79
2021/12/09 07:54:36;;;;;;;123.32;50.45;;;1.30;99.90;;;;;;5080745;28;20071;-79
2021/12/09 07:57:02;;;;;;;117.45;46.70;;;1.30;99.90;;;;;;5073226;28;20052;-79
2021/12/09 07:59:28;;;;;;;121.25;50.25;;;1.30;99.90;;;;;;5074965;28;20081;-79
2021/12/09 08:01:55;;;;;;;111.00;46.33;;;1.30;99.90;;;;;;5078229;28;20095;-79
2021/12/09 08:04:21;;;;;;;129.02;50.17;;;1.30;99.90;;;;;;5071952;28;20500;-79
2021/12/09 08:06:49;;;;;;;163.43;59.85;;;1.30;99.90;;;;;;5071218;28;20046;-79
2021/12/09 08:09:17;;;;;;;149.80;58.80;;;1.40;99.90;;;;;;5080425;28;20020;-79
2021/12/09 08:11:44;;;;;;;139.85;57.03;;;1.30;99.90;;;;;;5071372;28;20420;-79
2021/12/09 08:14:11;;;;;;;133.90;50.92;;;1.30;99.90;;;;;;5072393;28;20021;-78
2021/12/09 08:16:38;;;;;;;124.13;50.60;;;1.30;99.90;;;;;;5074313;28;20364;-78
2021/12/09 08:19:12;;;;;;;131.55;49.38;;;1.30;99.90;;;;;;5074838;28;20034;-78
2021/12/09 08:21:41;;;;;;;124.22;48.35;;;1.30;99.90;;;;;;5080761;28;20024;-79
2021/12/09 08:24:10;;;;;;;132.05;49.72;;;1.30;99.90;;;;;;5072281;28;20052;-79
2021/12/09 08:26:36;;;;;;;131.32;51.25;;;1.30;99.90;;;;;;5072105;28;20170;-78
2021/12/09 08:29:03;;;;;;;122.03;49.70;;;1.30;99.90;;;;;;5072270;28;20108;-79
2021/12/09 08:31:32;;;;;;;137.70;56.63;;;1.30;99.90;;;;;;5074681;28;20025;-78
2021/12/09 08:33:59;;;;;;;140.32;53.38;;;1.30;99.90;;;;;;5076302;28;20020;-79
2021/12/09 08:36:25;;;;;;;130.73;52.42;;;1.30;99.90;;;;;;5075869;28;20029;-79
2021/12/09 08:38:50;;;;;;;133.20;51.33;;;1.30;99.90;;;;;;5076415;28;20051;-79
2021/12/09 08:41:19;;;;;;;128.00;53.42;;;1.30;99.90;;;;;;5075979;28;20033;-78
2021/12/09 08:43:46;;;;;;;119.55;49.40;;;1.30;99.90;;;;;;5076265;28;20025;-79
2021/12/09 08:46:15;;;;;;;124.03;49.40;;;1.30;99.90;;;;;;5076170;28;20151;-79
2021/12/09 08:48:40;;;;;;;133.40;52.40;;;1.30;99.90;;;;;;5076009;28;20048;-79
2021/12/09 08:51:07;;;;;;;155.98;57.17;;;1.40;99.90;;;;;;5075424;28;20040;-78
2021/12/09 08:53:33;;;;;;;157.88;60.78;;;1.30;99.90;;;;;;5076160;28;20036;-78
2021/12/09 08:55:58;;;;;;;158.98;59.85;;;1.30;99.90;;;;;;5074476;28;20044;-78
2021/12/09 08:58:27;;;;;;;164.23;58.13;;;1.20;99.90;;;;;;5089968;28;20058;-78
2021/12/09 09:00:54;;;;;;;157.15;60.22;;;1.20;99.90;;;;;;5096170;28;20057;-80
2021/12/09 09:03:21;;;;;;;157.70;57.63;;;1.20;99.90;;;;;;5085981;28;20039;-78
2021/12/09 09:05:46;;;;;;;145.40;56.22;;;1.20;99.90;;;;;;5082719;28;20459;-78
2021/12/09 09:08:12;;;;;;;145.95;57.17;;;1.20;99.90;;;;;;5079289;28;20147;-78
2021/12/09 09:10:40;;;;;;;146.38;54.90;;;1.20;99.90;;;;;;5078085;28;20028;-78
2021/12/09 09:13:05;;;;;;;149.82;58.70;;;1.20;99.90;;;;;;5082019;28;20032;-78
2021/12/09 09:15:32;;;;;;;173.63;64.93;;;1.20;99.90;;;;;;5090333;28;20032;-78
2021/12/09 09:18:01;;;;;;;164.85;63.22;;;1.30;99.90;;;;;;5084879;28;20437;-78
2021/12/09 09:20:28;;;;;;;157.43;58.65;;;1.30;99.90;;;;;;5074985;28;20039;-78
2021/12/09 09:22:55;;;;;;;151.55;58.03;;;1.30;99.90;;;;;;5073276;28;20488;-78
2021/12/09 09:25:28;;;;;;;155.07;57.15;;;1.30;99.90;;;;;;5076227;28;20353;-78
2021/12/09 09:27:54;;;;;;;171.82;62.78;;;1.30;99.90;;;;;;5072034;28;20036;-78
2021/12/09 09:30:19;;;;;;;201.88;69.63;;;1.30;99.90;;;;;;5074255;28;20043;-77
2021/12/09 09:32:47;;;;;;;191.40;70.78;;;1.20;99.90;;;;;;5077976;28;20040;-78
2021/12/09 09:35:13;;;;;;;193.60;71.88;;;1.20;99.90;;;;;;5074719;28;20030;-77
2021/12/09 09:37:39;;;;;;;174.10;65.85;;;1.20;99.90;;;;;;5074895;28;20151;-78
2021/12/09 09:40:16;;;;;;;176.82;62.60;;;1.20;99.90;;;;;;5083841;28;20035;-77
2021/12/09 09:45:36;;;;;;;180.70;64.07;;;1.20;99.90;;;;;;5055902;28;20071;-78
2021/12/09 09:48:02;;;;;;;144.05;58.70;;;1.20;99.90;;;;;;5075336;28;20089;-78
2021/12/09 09:50:28;;;;;;;168.50;63.17;;;1.20;99.90;;;;;;5084724;28;20151;-78
2021/12/09 09:52:54;;;;;;;170.93;65.05;;;1.20;99.90;;;;;;5076843;28;20033;-78
2021/12/09 09:55:21;;;;;;;150.85;57.17;;;1.20;99.90;;;;;;5080987;28;20032;-78
2021/12/09 09:57:49;;;;;;;134.68;51.63;;;1.20;99.90;;;;;;5082021;28;20035;-78
2021/12/09 10:00:15;;;;;;;137.38;56.28;;;1.30;99.90;;;;;;5080159;28;20024;-78
2021/12/09 10:02:42;;;;;;;132.07;54.22;;;1.30;99.90;;;;;;5080592;28;20028;-77
2021/12/09 10:05:08;;;;;;;167.65;60.65;;;1.30;99.90;;;;;;5087469;28;20021;-78
2021/12/09 10:07:35;;;;;;;189.25;67.32;;;1.40;99.90;;;;;;5090855;28;20368;-78
2021/12/09 10:10:03;;;;;;;182.82;69.22;;;1.40;99.90;;;;;;5087793;28;20296;-78
2021/12/09 10:12:29;;;;;;;177.98;65.13;;;1.50;99.90;;;;;;5078014;28;20081;-78
2021/12/09 10:14:56;;;;;;;166.27;65.57;;;1.50;99.90;;;;;;5073998;28;20028;-78
2021/12/09 10:17:24;;;;;;;148.07;57.92;;;1.50;99.90;;;;;;5082900;28;20024;-78
2021/12/09 10:19:51;;;;;;;176.63;66.90;;;1.40;99.90;;;;;;5076428;28;20501;-79
2021/12/09 10:22:20;;;;;;;169.98;62.13;;;1.40;99.90;;;;;;5073656;28;20037;-78
2021/12/09 10:24:49;;;;;;;145.23;57.53;;;1.40;99.90;;;;;;5072443;28;20024;-78
2021/12/09 10:27:29;;;;;;;151.43;60.97;;;1.50;99.90;;;;;;5074365;28;20111;-79
2021/12/09 10:30:03;;;;;;;143.88;54.95;;;1.50;99.90;;;;;;5073987;28;20150;-78
2021/12/09 10:32:33;;;;;;;172.23;63.20;;;1.50;99.90;;;;;;5074049;28;20033;-78
2021/12/09 10:35:20;;;;;;;147.38;58.97;;;1.50;99.90;;;;;;5073891;28;20028;-78
2021/12/09 10:37:48;;;;;;;169.25;63.22;;;1.50;99.90;;;;;;5076775;28;20059;-78
2021/12/09 10:40:25;;;;;;;165.25;62.38;;;1.50;99.90;;;;;;5088086;28;20024;-78
2021/12/09 10:42:55;;;;;;;143.82;58.60;;;1.50;99.90;;;;;;5082969;28;20017;-78
2021/12/09 10:45:28;;;;;;;145.50;56.58;;;1.50;99.90;;;;;;5071883;28;20036;-78
2021/12/09 10:51:36;;;;;;;152.18;57.80;;;1.50;99.90;;;;;;5060791;28;20464;-78
2021/12/09 10:53:50;;;;;;;159.60;58.88;;;1.60;99.90;;;;;;5068058;28;20109;-78
2021/12/09 10:56:30;;;;;;;141.35;59.20;;;1.60;99.90;;;;;;5073218;28;20120;-78
2021/12/09 10:58:57;;;;;;;133.77;55.72;;;1.60;99.90;;;;;;5084202;28;20463;-78
2021/12/09 11:01:24;;;;;;;154.75;58.70;;;1.60;99.90;;;;;;5072891;28;20082;-79
2021/12/09 11:03:54;;;;;;;138.48;55.30;;;1.60;99.90;;;;;;5073930;28;20024;-78
2021/12/09 11:06:33;;;;;;;158.55;61.08;;;1.60;99.90;;;;;;5080209;28;20063;-79
2021/12/09 11:09:00;;;;;;;155.07;59.60;;;1.60;99.90;;;;;;5083239;28;20365;-78
2021/12/09 11:11:32;;;;;;;142.93;56.25;;;1.60;99.90;;;;;;5072431;28;20035;-78
2021/12/09 11:14:13;;;;;;;142.32;56.42;;;1.60;99.90;;;;;;5079921;28;20020;-79
2021/12/09 11:17:02;;;;;;;140.45;55.58;;;1.60;99.90;;;;;;5069229;28;20076;-78
2021/12/09 11:19:38;;;;;;;158.38;63.38;;;1.60;99.90;;;;;;5078675;28;20483;-79
2021/12/09 11:22:19;;;;;;;164.95;65.57;;;1.60;99.90;;;;;;5080848;28;20032;-78
2021/12/09 11:24:48;;;;;;;152.07;59.33;;;1.60;99.90;;;;;;5080624;28;20021;-79
2021/12/09 11:27:22;;;;;;;147.88;60.17;;;1.60;99.90;;;;;;5092219;28;20020;-78
2021/12/09 11:29:52;;;;;;;145.75;57.60;;;1.60;99.90;;;;;;5087886;28;20021;-78
2021/12/09 11:32:30;;;;;;;161.48;62.28;;;1.60;99.90;;;;;;5078363;28;20061;-78
2021/12/09 11:35:05;;;;;;;159.32;60.28;;;1.60;99.90;;;;;;5072480;28;20051;-78
2021/12/09 11:40:28;;;;;;;147.32;57.25;;;1.60;99.90;;;;;;5077902;28;20028;-79
2021/12/09 11:42:59;;;;;;;146.60;58.95;;;1.70;99.90;;;;;;5078473;28;20028;-79
2021/12/09 11:45:29;;;;;;;158.55;59.92;;;1.70;99.90;;;;;;5078873;28;20028;-78
2021/12/09 11:47:56;;;;;;;143.85;60.15;;;1.70;99.90;;;;;;5077168;28;20032;-78
2021/12/09 11:50:31;;;;;;;149.85;60.20;;;1.70;99.90;;;;;;5072692;28;20063;-78
2021/12/09 11:52:59;;;;;;;169.43;59.38;;;1.70;99.90;;;;;;5073955;28;20024;-78
2021/12/09 11:55:35;;;;;;;177.10;66.88;;;1.80;99.90;;;;;;5072192;28;20469;-79
2021/12/09 11:58:07;;;;;;;160.20;65.15;;;1.70;99.90;;;;;;5070663;28;20456;-79
2021/12/09 12:07:10;;;;;;;184.27;71.35;;;1.80;99.90;;;;;;5056612;28;20038;-79
2021/12/09 12:15:27;;;;;;;201.48;74.57;;;1.70;99.90;;;;;;5059099;28;20427;-78
2021/12/09 12:20:45;;;;;;;187.65;73.53;;;1.70;99.90;;;;;;5071933;28;20358;-79
2021/12/09 12:23:44;;;;;;;190.57;71.03;;;1.70;99.90;;;;;;5072113;28;20021;-79
2021/12/09 12:35:26;;;;;;;168.73;63.63;;;1.70;99.90;;;;;;5086249;28;20113;-79
2021/12/09 12:38:12;;;;;;;169.00;62.22;;;1.80;99.90;;;;;;5062781;28;20044;-79
2021/12/09 12:40:47;;;;;;;158.13;57.70;;;1.80;99.90;;;;;;5070232;28;20024;-79
2021/12/09 12:43:31;;;;;;;185.90;67.88;;;1.80;99.90;;;;;;5072012;28;20032;-79
2021/12/09 12:46:20;;;;;;;157.85;63.25;;;1.80;99.90;;;;;;5070936;28;20029;-79
2021/12/09 12:49:01;;;;;;;167.80;65.28;;;1.90;99.90;;;;;;5072143;28;20077;-79
2021/12/09 12:54:21;;;;;;;153.90;60.45;;;1.90;99.90;;;;;;5072207;28;20485;-79
2021/12/09 12:56:57;;;;;;;177.18;64.95;;;1.90;99.90;;;;;;5071901;28;20132;-78
2021/12/09 12:59:34;;;;;;;172.10;68.20;;;1.90;99.90;;;;;;5072312;28;20029;-78
2021/12/09 13:02:00;;;;;;;158.30;66.18;;;2.00;99.90;;;;;;5071171;28;20029;-79
2021/12/09 13:04:43;;;;;;;183.90;65.93;;;2.00;99.90;;;;;;5071801;28;20021;-79
2021/12/09 13:13:51;;;;;;;166.32;64.75;;;2.10;99.90;;;;;;5065564;28;20062;-79
2021/12/09 13:19:11;;;;;;;199.02;73.00;;;2.10;99.90;;;;;;5066596;28;20033;-79
2021/12/09 13:21:51;;;;;;;185.73;70.75;;;2.10;99.90;;;;;;5074913;28;20517;-78